Cottonwd Hgts, Utah
Current Conditions -  °F | °C
As of 5:53 PM on Friday 28 Nov 2014 (Local Time) from KSLC Reporting Station
Few Clouds Few Clouds  
Wind Chill: 58°   Ceiling: Unl
Heat Index: 58°   Visibility: 10mi
Dew Point: 15°   Wind: 14mph
Humidity: 19%   Direction: 180°S
Pressure: 29.82"   Gusts: NA
Location:  40.615°N, 111.891°W
Report Text: KSLC 290053Z 18012KT 10SM FEW140 FEW210 14/M09 A2982 RMK AO2 SLP075 T01441094
Loading
Personal Weather Stations






























Interactive Weather Map New forecast layout! Learn more

10-Day Weather Forecast

Advertisements
Track Severe Weather on mobile